WetterOnline ( https://www.wetteronline.de )

Wetter aktuell Merzig

Aktuelles Wetter: Berus (367m)

6-stündlich | Neueste Meldungen
Ortszeit Temperatur Wetter
Mi, 20.01. 1:00 1.2° C bedeckt
Di, 19.01. 19:00 0.2° C wolkig
Di, 19.01. 13:00 1.0° C bewölkt
Di, 19.01. 7:00 0.7° C bedeckt
Di, 19.01. 1:00 0.9° C bedeckt
Mo, 18.01. 19:00 1.5° C bedeckt
Mo, 18.01. 13:00 2.3° C bedeckt
Mo, 18.01. 7:00 0.6° C bedeckt
Ortszeit Temperatur Wetter
Mi, 20.01. 2:30 1.7° C bewölkt
Mi, 20.01. 2:20 1.7° C bewölkt
Mi, 20.01. 2:10 1.3° C bewölkt
Mi, 20.01. 2:00 0.9° C bewölkt
Mi, 20.01. 1:50 0.9° C bewölkt
Mi, 20.01. 1:40 1.4° C bewölkt
Mi, 20.01. 1:30 1.7° C wolkig
Mi, 20.01. 1:00 1.2° C bedeckt
Mi, 20.01. 0:30 1.4° C wolkig
Mi, 20.01. 0:00 1.1° C leicht bewölkt
Di, 19.01. 23:30 0.7° C wolkenlos
Ortszeit Relative Feuchte Sichtweite
Mi, 20.01. 1:00 80% 45 km
Di, 19.01. 19:00 95% 21 km
Di, 19.01. 13:00 99% 7 km
Di, 19.01. 7:00 89% 35 km
Di, 19.01. 1:00 91% 30 km
Mo, 18.01. 19:00 92% 30 km
Mo, 18.01. 13:00 86% 30 km
Mo, 18.01. 7:00 99% 6 km
Ortszeit Relative Feuchte Sichtweite
Mi, 20.01. 2:30 75% 65 km
Mi, 20.01. 2:20 75% -
Mi, 20.01. 2:10 78% -
Mi, 20.01. 2:00 80% 45 km
Mi, 20.01. 1:50 80% -
Mi, 20.01. 1:40 78% -
Mi, 20.01. 1:30 76% 60 km
Mi, 20.01. 1:00 80% 45 km
Mi, 20.01. 0:30 79% 45 km
Mi, 20.01. 0:00 80% 40 km
Di, 19.01. 23:30 82% 45 km
Ortszeit Niederschlagsmenge Niederschlagsart
Mi, 20.01. 1:00 0.0 l/m2 in 6 Std. -
Di, 19.01. 19:00 2 l/m2 in 12 Std. Schnee, Regen
Di, 19.01. 13:00 1 l/m2 in 6 Std. Regen
Di, 19.01. 7:00 0.0 l/m2 in 12 Std. -
Di, 19.01. 1:00 0.0 l/m2 in 6 Std. -
Mo, 18.01. 19:00 0.1 l/m2 in 12 Std. Sprühregen
Mo, 18.01. 13:00 0.1 l/m2 in 6 Std. Sprühregen
Mo, 18.01. 7:00 0.1 l/m2 in 12 Std. Schnee, Regen
Ortszeit Niederschlagsmenge Niederschlagsart
Mi, 20.01. 2:30 0.0 l/m2 in 1 Std. -
Mi, 20.01. 2:20 keine Meldung -
Mi, 20.01. 2:10 keine Meldung -
Mi, 20.01. 2:00 0.0 l/m2 in 1 Std. -
Mi, 20.01. 1:50 keine Meldung -
Mi, 20.01. 1:40 keine Meldung -
Mi, 20.01. 1:30 0.0 l/m2 in 1 Std. -
Mi, 20.01. 1:00 0.0 l/m2 in 1 Std. -
Mi, 20.01. 0:30 0.0 l/m2 in 1 Std. -
Mi, 20.01. 0:00 0.0 l/m2 in 1 Std. -
Di, 19.01. 23:30 0.0 l/m2 in 1 Std. -
Ortszeit Stärke Spitze Richtung
km/h Bft. km/h Grad Sektor
Mi, 20.01. 1:00 20 4 31 210° SW
Di, 19.01. 19:00 18 3 50 200° S
Di, 19.01. 13:00 33 5 54 220° SW
Di, 19.01. 7:00 26 4 35 210° SW
Di, 19.01. 1:00 17 3 33 220° SW
Mo, 18.01. 19:00 22 4 40 220° SW
Mo, 18.01. 13:00 22 4 35 230° SW
Mo, 18.01. 7:00 11 2 25 240° SW
Ortszeit Stärke Spitze Richtung
km/h Bft. km/h Grad Sektor
Mi, 20.01. 2:30 22 4 29 200° S
Mi, 20.01. 2:20 22 4 - 200° S
Mi, 20.01. 2:10 18 3 - 200° S
Mi, 20.01. 2:00 14 3 32 210° SW
Mi, 20.01. 1:50 14 3 - 210° SW
Mi, 20.01. 1:40 20 4 - 210° SW
Mi, 20.01. 1:30 22 4 31 200° S
Mi, 20.01. 1:00 20 4 31 210° SW
Mi, 20.01. 0:30 22 4 32 210° SW
Mi, 20.01. 0:00 18 3 29 210° SW
Di, 19.01. 23:30 14 3 22 200° S
Ortszeit Untergrenze Bedeckung Gattung
total tief tief mittel hoch
Mi, 20.01. 1:00 4200 m 8/8 8/8 - - -
Di, 19.01. 19:00 9000 m 8/8 0/8 - - -
Di, 19.01. 13:00 150 m 7/8 7/8 - - -
Di, 19.01. 7:00 960 m 8/8 8/8 - - -
Di, 19.01. 1:00 870 m 8/8 8/8 - - -
Mo, 18.01. 19:00 420 m 8/8 8/8 - - -
Mo, 18.01. 13:00 480 m 8/8 8/8 - - -
Mo, 18.01. 7:00 90 m 8/8 8/8 - - -
Ortszeit Bedeckungsgrad in Achtel und Wolkenuntergrenze
Mi, 20.01. 2:30 4(4800m) 8(8700m) 8(9000m)
Mi, 20.01. 2:20 4(4800m) 8(8700m) 8(9000m)
Mi, 20.01. 2:10 7(4800m) 8(8400m) 8(9000m)
Mi, 20.01. 2:00 7(4800m) 8(8700m) 8(9000m)
Mi, 20.01. 1:50 7(4800m) 8(8700m)
Mi, 20.01. 1:40 6(4800m) 8(8700m)
Mi, 20.01. 1:30 8(8700m) 8(8700m)
Mi, 20.01. 1:00 7(4200m) 8(5100m) 8(9000m)
Mi, 20.01. 0:30 1(5100m) 3(5700m) 6(10500m)
Mi, 20.01. 0:00 3(9000m)
Di, 19.01. 23:30 keine Wolken
Ortszeit Luftdruck NN (hPa) Tendenz (hPa in 3 Std.)
Mi, 20.01. 1:00 1012 - 1,6
Di, 19.01. 19:00 1015 - 0,6
Di, 19.01. 13:00 1016 - 1,3
Di, 19.01. 7:00 1019 - 2,6
Di, 19.01. 1:00 1024 - 1,3
Mo, 18.01. 19:00 1026 - 0,2
Mo, 18.01. 13:00 1027 - 0,5
Mo, 18.01. 7:00 1027 0,0
Ortszeit Luftdruck NN (hPa) Tendenz (hPa in 3 Std.)
Mi, 20.01. 2:30 1011 - 1,6
Mi, 20.01. 2:20 1011 keine Meldung
Mi, 20.01. 2:10 1011 keine Meldung
Mi, 20.01. 2:00 1012 - 1,8
Mi, 20.01. 1:50 1012 keine Meldung
Mi, 20.01. 1:40 1012 keine Meldung
Mi, 20.01. 1:30 1012 - 1,9
Mi, 20.01. 1:00 1012 - 1,6
Mi, 20.01. 0:30 1012 - 1,6
Mi, 20.01. 0:00 1013 - 1,5
Di, 19.01. 23:30 1013 - 1,3
Ortszeit Schneehöhe (cm)
Mi, 20.01. 1:00 6
Di, 19.01. 19:00 7
Di, 19.01. 13:00 8
Di, 19.01. 7:00 9
Di, 19.01. 1:00 9
Mo, 18.01. 19:00 10
Mo, 18.01. 13:00 12
Mo, 18.01. 7:00 13
Ortszeit Schneehöhe (cm)
Mi, 20.01. 2:30 6
Mi, 20.01. 2:20 6
Mi, 20.01. 2:10 6
Mi, 20.01. 2:00 6
Mi, 20.01. 1:50 6
Mi, 20.01. 1:40 6
Mi, 20.01. 1:30 6
Mi, 20.01. 1:00 6
Mi, 20.01. 0:30 6
Mi, 20.01. 0:00 6
Di, 19.01. 23:30 6
Link zu dieser Seite / Seite empfehlen

Das Wetter in ...